This is the latest recevied weather packets stored in our database for station/object 4S6DRJ-13. If no packets are shown the sender has not sent any weather packets the latest 10 day(s).
| Time | Temp. | Humidity | Pressure | Rain* | Wind** | Luminosity | Snow |
|---|---|---|---|---|---|---|---|
| 1788332563 | 31.67° C | 68% | 1009.7 hPa | 0 mm | 0.45 m/s, 241° | 351 W/m² | - |
| 1788332502 | 31.67° C | 68% | 1009.6 hPa | 0 mm | 0.89 m/s, 106° | 454 W/m² | - |
| 1788332441 | 31.67° C | 67% | 1009.8 hPa | 0 mm | 2.24 m/s, 49° | 691 W/m² | - |
| 1788332380 | 31.67° C | 67% | 1009.6 hPa | 0 mm | 1.79 m/s, 273° | 559 W/m² | - |
| 1788332319 | 31.67° C | 68% | 1009.8 hPa | 0 mm | 0.89 m/s, 288° | 782 W/m² | - |
| 1788332259 | 31.67° C | 66% | 1009.5 hPa | 0 mm | 1.79 m/s, 231° | 674 W/m² | - |
| 1788332197 | 31.67° C | 67% | 1009.7 hPa | 0 mm | 0.89 m/s, 250° | 471 W/m² | - |
| 1788332137 | 31.67° C | 67% | 1009.6 hPa | 0 mm | 0 m/s | 361 W/m² | - |
| 1788332076 | 31.67° C | 66% | 1009.8 hPa | 0 mm | 0.89 m/s, 283° | 338 W/m² | - |
| 1788332014 | 32.22° C | 66% | 1009.8 hPa | 0 mm | 0.89 m/s, 358° | 1139 W/m² | - |
| 1788331953 | 32.22° C | 67% | 1009.6 hPa | 0 mm | 2.68 m/s, 229° | 1135 W/m² | - |
| 1788331892 | 32.22° C | 66% | 1009.7 hPa | 0 mm | 1.34 m/s, 256° | 1133 W/m² | - |
| 1788331831 | 32.22° C | 68% | 1009.8 hPa | 0 mm | 2.24 m/s, 228° | 1134 W/m² | - |
| 1788331770 | 31.67° C | 69% | 1009.6 hPa | 0 mm | 0.89 m/s, 230° | 584 W/m² | - |
| 1788331709 | 31.67° C | 68% | 1009.8 hPa | 0 mm | 1.79 m/s, 190° | 394 W/m² | - |
| 1788331648 | 31.67° C | 68% | 1009.7 hPa | 0 mm | 0.89 m/s, 227° | 1133 W/m² | - |
| 1788331588 | 31.67° C | 68% | 1009.8 hPa | 0 mm | 0.89 m/s, 300° | 1128 W/m² | - |
| 1788331526 | 31.67° C | 67% | 1009.8 hPa | 0 mm | 1.79 m/s, 230° | 1127 W/m² | - |
| 1788331465 | 31.67° C | 68% | 1010 hPa | 0 mm | 0.89 m/s, 51° | 1135 W/m² | - |
| 1788331404 | 31.67° C | 67% | 1009.9 hPa | 0 mm | 2.68 m/s, 237° | 373 W/m² | - |
| 1788331343 | 31.67° C | 68% | 1010 hPa | 0 mm | 1.79 m/s, 152° | 1137 W/m² | - |
| 1788331282 | 31.67° C | 68% | 1009.9 hPa | 0 mm | 4.02 m/s, 283° | 960 W/m² | - |
| 1788331222 | 31.11° C | 71% | 1009.9 hPa | 0 mm | 0.45 m/s, 243° | 595 W/m² | - |
| 1788331160 | 31.11° C | 70% | 1010 hPa | 0 mm | 2.24 m/s, 191° | 1139 W/m² | - |
| 1788331099 | 31.11° C | 70% | 1010 hPa | 0 mm | 1.34 m/s, 160° | 1106 W/m² | - |
* Rain latest hour (hover to see other rain measurements)
** Current wind speed in m/s (hover to see current wind gust speed)